Terminal Aerodrome Forecast
Issued by NWS

Home | Current Version | Previous Version | Text Only | Print | Product List | Glossary On
Versions: 1 2 3 4 5 6 7 8 9 10 11 12 13
000
FTUS43 KTOP 201700
TAFFOE
TAF
KFOE 201720Z 2018/2118 09006KT P6SM FEW200
     FM211000 10008KT P6SM BKN035
     FM211400 12007KT 6SM -FZDZ BR BKN012
     FM211700 12007KT 4SM -DZ BKN012=

USA.gov is the U.S. government's official web portal to all federal, state and local government web resources and services.